createdAt,value
2019-05-23T00:00:58.947Z,13.87
2019-05-23T00:03:52.646Z,20.30
2019-05-23T00:06:40.869Z,13.90
2019-05-23T00:09:30.064Z,13.00
2019-05-23T00:12:11.594Z,12.33
2019-05-23T00:14:53.183Z,14.43
2019-05-23T00:17:24.219Z,14.27
2019-05-23T00:19:54.077Z,12.20
2019-05-23T00:22:33.959Z,14.03
2019-05-23T00:25:05.014Z,14.07
2019-05-23T00:27:34.776Z,12.47
2019-05-23T00:30:05.284Z,14.80
2019-05-23T00:32:45.885Z,13.93
2019-05-23T00:35:19.396Z,13.72
2019-05-23T00:37:51.262Z,14.13
2019-05-23T00:40:23.822Z,15.63
2019-05-23T00:42:54.818Z,16.63
2019-05-23T00:45:25.247Z,14.70
2019-05-23T00:47:55.947Z,15.30
2019-05-23T00:50:27.678Z,14.70
2019-05-23T00:52:57.590Z,17.32
2019-05-23T00:55:28.857Z,15.73
2019-05-23T00:57:59.424Z,16.70
2019-05-23T01:00:30.238Z,17.63
2019-05-23T01:03:00.182Z,16.10
2019-05-23T01:05:31.094Z,16.77
2019-05-23T01:08:01.610Z,16.70
2019-05-23T01:10:32.220Z,15.80
2019-05-23T01:13:02.553Z,18.03
2019-05-23T01:15:32.802Z,18.33
2019-05-23T01:18:04.144Z,16.83
2019-05-23T01:20:44.803Z,15.30
2019-05-23T01:23:15.147Z,16.37
2019-05-23T01:25:44.851Z,17.23
2019-05-23T01:28:14.616Z,21.97
2019-05-23T01:30:46.411Z,18.73
2019-05-23T01:33:17.814Z,15.73
2019-05-23T01:35:48.109Z,18.13
2019-05-23T01:38:19.536Z,16.75
2019-05-23T01:40:49.795Z,17.17
2019-05-23T01:43:20.550Z,18.30
2019-05-23T01:45:50.536Z,19.83
2019-05-23T01:48:20.665Z,18.00
2019-05-23T01:50:50.824Z,20.13
2019-05-23T01:53:21.386Z,22.27
2019-05-23T01:55:51.264Z,17.32
2019-05-23T01:58:21.500Z,22.13
2019-05-23T02:00:51.614Z,16.07
2019-05-23T02:03:21.547Z,22.30
2019-05-23T02:05:51.325Z,19.37
2019-05-23T02:08:21.023Z,19.90
2019-05-23T02:10:51.297Z,22.37
2019-05-23T02:13:22.380Z,23.33
2019-05-23T02:15:53.606Z,21.30
2019-05-23T02:18:25.343Z,19.90
2019-05-23T02:20:55.223Z,22.13
2019-05-23T02:23:25.105Z,20.00
2019-05-23T02:25:55.567Z,22.02
2019-05-23T02:28:25.497Z,21.17
2019-05-23T02:30:55.633Z,24.40
2019-05-23T02:33:25.415Z,19.07
2019-05-23T02:35:55.267Z,18.10
2019-05-23T02:38:43.540Z,19.42
2019-05-23T02:41:27.371Z,20.27
2019-05-23T02:44:01.576Z,20.43
2019-05-23T02:46:51.053Z,16.93
2019-05-23T02:49:22.989Z,19.93
2019-05-23T02:51:53.543Z,20.20
2019-05-23T02:54:25.778Z,18.43
2019-05-23T02:56:56.494Z,19.70
2019-05-23T02:59:48.916Z,17.30
2019-05-23T03:02:35.443Z,19.67
2019-05-23T03:05:07.051Z,19.30
2019-05-23T03:07:36.767Z,21.23
2019-05-23T03:10:09.222Z,20.13
2019-05-23T03:12:40.971Z,26.70
2019-05-23T03:15:12.637Z,23.57
2019-05-23T03:17:45.306Z,24.02
2019-05-23T03:20:16.367Z,27.17
2019-05-23T03:22:56.299Z,20.27
2019-05-23T03:26:19.704Z,22.10
2019-05-23T03:28:51.102Z,23.20
2019-05-23T03:31:32.420Z,23.27
2019-05-23T03:34:01.067Z,20.90
2019-05-23T03:36:30.985Z,21.87
2019-05-23T03:39:00.993Z,24.77
2019-05-23T03:41:31.829Z,20.50
2019-05-23T03:44:03.105Z,18.60
2019-05-23T03:46:34.500Z,24.00
2019-05-23T03:49:05.281Z,23.07
2019-05-23T03:51:36.484Z,19.77
2019-05-23T03:54:06.460Z,24.10
2019-05-23T03:56:36.107Z,25.30
2019-05-23T03:59:07.648Z,24.70
2019-05-23T04:01:47.651Z,23.33
2019-05-23T04:04:09.783Z,24.60
2019-05-23T04:06:39.451Z,20.17
2019-05-23T04:09:10.583Z,23.47
2019-05-23T04:11:40.520Z,23.13
2019-05-23T04:14:10.521Z,27.63
2019-05-23T04:16:40.155Z,22.87
2019-05-23T04:19:09.902Z,22.50
2019-05-23T04:21:39.650Z,25.70
2019-05-23T04:24:09.413Z,22.50
2019-05-23T04:26:40.314Z,24.55
2019-05-23T04:29:10.441Z,22.17
2019-05-23T04:31:40.229Z,24.00
2019-05-23T04:34:09.993Z,24.07
2019-05-23T04:36:40.228Z,23.10
2019-05-23T04:39:10.672Z,22.97
2019-05-23T04:41:40.363Z,24.77
2019-05-23T04:44:10.310Z,23.50
2019-05-23T04:46:40.388Z,24.07
2019-05-23T04:49:11.152Z,22.90
2019-05-23T04:51:41.389Z,24.72
2019-05-23T04:54:12.037Z,20.73
2019-05-23T04:56:41.461Z,20.02
2019-05-23T04:59:11.240Z,21.33
2019-05-23T05:01:40.876Z,23.27
2019-05-23T05:04:10.613Z,18.85
2019-05-23T05:06:40.245Z,21.90
2019-05-23T05:09:13.034Z,20.23
2019-05-23T05:11:42.835Z,20.53
2019-05-23T05:14:12.573Z,21.47
2019-05-23T05:16:42.289Z,20.40
2019-05-23T05:19:12.088Z,22.40
2019-05-23T05:21:41.930Z,18.90
2019-05-23T05:24:11.565Z,23.87
2019-05-23T05:26:42.261Z,26.37
2019-05-23T05:29:12.758Z,21.63
2019-05-23T05:31:42.569Z,26.03
2019-05-23T05:34:12.273Z,25.62
2019-05-23T05:36:42.117Z,21.97
2019-05-23T05:39:12.965Z,23.90
2019-05-23T05:41:43.307Z,28.43
2019-05-23T05:44:13.489Z,26.70
2019-05-23T05:46:43.334Z,24.73
2019-05-23T05:49:13.652Z,25.50
2019-05-23T05:51:43.654Z,29.77
2019-05-23T05:54:13.468Z,23.30
2019-05-23T05:56:43.178Z,26.17
2019-05-23T05:59:14.057Z,23.53
2019-05-23T06:01:44.351Z,23.03
2019-05-23T06:04:14.071Z,26.13
2019-05-23T06:06:50.267Z,27.43
2019-05-23T06:09:23.597Z,28.97
2019-05-23T06:11:54.571Z,29.63
2019-05-23T06:14:24.365Z,27.30
2019-05-23T06:16:56.308Z,28.10
2019-05-23T06:19:27.032Z,25.23
2019-05-23T06:21:56.709Z,29.93
2019-05-23T06:24:42.238Z,27.57
2019-05-23T06:26:58.884Z,27.60
2019-05-23T06:29:28.882Z,28.90
2019-05-23T06:31:58.965Z,28.23
2019-05-23T06:34:28.710Z,32.37
2019-05-23T06:36:59.217Z,28.47
2019-05-23T06:39:28.945Z,31.53
2019-05-23T06:41:59.758Z,29.50
2019-05-23T06:44:29.403Z,28.13
2019-05-23T06:46:59.614Z,29.17
2019-05-23T06:49:29.590Z,30.33
2019-05-23T06:51:59.431Z,31.63
2019-05-23T06:54:29.118Z,31.02
2019-05-23T06:56:58.949Z,31.07
2019-05-23T06:59:29.083Z,31.47
2019-05-23T07:01:59.201Z,28.62
2019-05-23T07:04:29.186Z,32.77
2019-05-23T07:07:01.152Z,32.87
2019-05-23T07:09:30.797Z,31.73
2019-05-23T07:12:00.781Z,33.13
2019-05-23T07:14:31.908Z,34.93
2019-05-23T07:17:01.747Z,33.63
2019-05-23T07:19:31.627Z,31.53
2019-05-23T07:22:01.374Z,28.90
2019-05-23T07:24:31.766Z,31.15
2019-05-23T07:27:01.638Z,30.80
2019-05-23T07:29:31.430Z,28.45
2019-05-23T07:32:01.148Z,32.03
2019-05-23T07:34:30.985Z,30.70
2019-05-23T07:37:01.618Z,33.03
2019-05-23T07:39:31.313Z,29.27
2019-05-23T07:42:01.355Z,32.88
2019-05-23T07:44:45.990Z,32.20
2019-05-23T07:47:02.769Z,28.85
2019-05-23T07:49:33.685Z,29.43
2019-05-23T07:52:03.465Z,28.90
2019-05-23T07:54:41.713Z,30.27
2019-05-23T07:57:13.607Z,25.77
2019-05-23T07:59:43.263Z,20.40
2019-05-23T08:02:28.569Z,23.50
2019-05-23T08:04:58.796Z,17.77
2019-05-23T08:07:32.448Z,18.65
2019-05-23T08:10:01.141Z,18.90
2019-05-23T08:12:31.455Z,16.10
2019-05-23T08:15:02.112Z,17.40
2019-05-23T08:17:32.094Z,18.17
2019-05-23T08:20:01.979Z,18.45
2019-05-23T08:22:31.999Z,12.67
2019-05-23T08:25:01.705Z,11.63
2019-05-23T08:27:31.513Z,9.60
2019-05-23T08:30:02.337Z,10.82
2019-05-23T08:32:35.034Z,11.40
2019-05-23T08:35:05.136Z,10.10
2019-05-23T08:37:35.399Z,10.90
2019-05-23T08:40:06.024Z,9.87
2019-05-23T08:42:36.275Z,10.00
2019-05-23T08:45:08.777Z,12.20
2019-05-23T08:47:38.780Z,10.05
2019-05-23T08:50:11.288Z,10.78
2019-05-23T08:52:41.026Z,12.05
2019-05-23T08:55:20.151Z,10.05
2019-05-23T08:57:50.653Z,8.57
2019-05-23T09:00:22.601Z,8.60
2019-05-23T09:02:53.169Z,9.40
2019-05-23T09:05:26.681Z,9.53
2019-05-23T09:07:56.915Z,10.03
2019-05-23T09:10:27.165Z,6.95
2019-05-23T09:12:57.146Z,8.63
2019-05-23T09:15:26.903Z,8.33
2019-05-23T09:17:56.858Z,9.03
2019-05-23T09:20:26.736Z,7.80
2019-05-23T09:22:56.792Z,7.40
2019-05-23T09:25:26.719Z,7.85
2019-05-23T09:27:56.955Z,8.03
2019-05-23T09:30:29.757Z,7.53
2019-05-23T09:32:59.453Z,8.05
2019-05-23T09:35:29.758Z,7.15
2019-05-23T09:37:59.459Z,8.50
2019-05-23T09:40:29.427Z,8.63
2019-05-23T09:42:59.231Z,7.53
2019-05-23T09:45:29.000Z,8.80
2019-05-23T09:47:58.719Z,7.80
2019-05-23T09:50:28.561Z,7.73
2019-05-23T09:52:58.536Z,7.53
2019-05-23T09:55:29.288Z,8.78
2019-05-23T09:57:59.190Z,7.60
2019-05-23T10:00:29.384Z,9.20
2019-05-23T10:02:59.654Z,9.50
2019-05-23T10:05:42.172Z,8.88
2019-05-23T10:08:01.796Z,10.18
2019-05-23T10:10:31.589Z,11.15
2019-05-23T10:13:01.357Z,8.33
2019-05-23T10:15:41.535Z,8.10
2019-05-23T10:18:14.950Z,8.75
2019-05-23T10:20:44.623Z,7.55
2019-05-23T10:23:17.233Z,7.95
2019-05-23T10:25:47.047Z,6.97
2019-05-23T10:28:17.161Z,9.30
2019-05-23T10:30:46.959Z,9.20
2019-05-23T10:33:16.847Z,8.08
2019-05-23T10:35:59.614Z,8.38
2019-05-23T10:38:19.118Z,6.40
2019-05-23T10:40:49.100Z,5.42
2019-05-23T10:43:19.011Z,8.13
2019-05-23T10:45:49.064Z,7.22
2019-05-23T10:48:18.962Z,6.22
2019-05-23T10:50:49.326Z,7.22
2019-05-23T10:53:20.298Z,6.62
2019-05-23T10:55:50.147Z,8.30
2019-05-23T10:58:20.052Z,9.75
2019-05-23T11:00:50.810Z,10.34
2019-05-23T11:03:21.215Z,8.90
2019-05-23T11:05:51.556Z,8.65
2019-05-23T11:08:27.761Z,7.85
2019-05-23T11:10:52.990Z,7.03
2019-05-23T11:13:22.772Z,8.40
2019-05-23T11:15:52.520Z,8.05
2019-05-23T11:18:22.194Z,9.53
2019-05-23T11:20:52.147Z,9.83
2019-05-23T11:23:25.753Z,8.58
2019-05-23T11:25:55.661Z,8.93
2019-05-23T11:28:25.515Z,9.83
2019-05-23T11:30:57.493Z,7.20
2019-05-23T11:33:27.505Z,9.95
2019-05-23T11:35:58.138Z,6.55
2019-05-23T11:38:27.846Z,9.00
2019-05-23T11:40:57.593Z,8.28
2019-05-23T11:43:27.325Z,6.40
2019-05-23T11:46:07.319Z,6.72
2019-05-23T11:48:37.121Z,7.30
2019-05-23T11:51:06.969Z,7.28
2019-05-23T11:53:38.732Z,6.58
2019-05-23T11:56:08.451Z,9.45
2019-05-23T11:58:38.135Z,6.96
2019-05-23T12:01:20.504Z,5.42
2019-05-23T12:03:48.298Z,6.67
2019-05-23T12:06:18.799Z,7.25
2019-05-23T12:08:49.030Z,5.98
2019-05-23T12:11:19.580Z,7.37
2019-05-23T12:13:49.206Z,7.85
2019-05-23T12:16:20.618Z,6.87
2019-05-23T12:18:50.450Z,8.20
2019-05-23T12:21:21.114Z,9.10
2019-05-23T12:23:50.775Z,8.25
2019-05-23T12:26:20.536Z,7.17
2019-05-23T12:28:50.255Z,6.53
2019-05-23T12:31:20.144Z,9.30
2019-05-23T12:33:50.075Z,8.00
2019-05-23T12:36:21.002Z,7.58
2019-05-23T12:38:51.767Z,8.23
2019-05-23T12:41:21.687Z,7.60
2019-05-23T12:43:51.532Z,12.53
2019-05-23T12:46:21.463Z,9.18
2019-05-23T12:49:01.375Z,6.92
2019-05-23T12:51:33.458Z,6.40
2019-05-23T12:54:03.286Z,7.92
2019-05-23T12:56:33.881Z,7.63
2019-05-23T12:59:04.899Z,8.00
2019-05-23T13:01:35.783Z,7.68
2019-05-23T13:04:09.924Z,9.25
2019-05-23T13:06:37.258Z,9.28
2019-05-23T13:09:09.200Z,8.90
2019-05-23T13:11:38.987Z,10.30
2019-05-23T13:14:09.107Z,8.63
2019-05-23T13:16:38.850Z,9.78
2019-05-23T13:19:08.793Z,11.22
2019-05-23T13:21:38.504Z,9.48
2019-05-23T13:24:08.246Z,11.90
2019-05-23T13:26:39.016Z,11.93
2019-05-23T13:29:08.954Z,12.70
2019-05-23T13:31:38.826Z,11.33
2019-05-23T13:34:08.618Z,11.25
2019-05-23T13:36:38.395Z,11.40
2019-05-23T13:39:09.538Z,10.18
2019-05-23T13:41:40.451Z,9.63
2019-05-23T13:44:10.185Z,10.33
2019-05-23T13:46:40.858Z,9.30
2019-05-23T13:49:10.939Z,9.13
2019-05-23T13:51:40.843Z,9.80
2019-05-23T13:54:10.596Z,8.95
2019-05-23T13:56:40.248Z,7.60
2019-05-23T13:59:10.106Z,9.05
2019-05-23T14:01:39.870Z,8.33
2019-05-23T14:04:10.189Z,11.18
2019-05-23T14:06:40.119Z,6.95
2019-05-23T14:09:10.241Z,8.95
2019-05-23T14:11:40.026Z,8.23
2019-05-23T14:14:10.627Z,10.68
2019-05-23T14:16:49.770Z,7.90
2019-05-23T14:19:19.666Z,10.80
2019-05-23T14:21:49.600Z,10.10
2019-05-23T14:24:20.253Z,10.28
2019-05-23T14:26:56.499Z,7.67
2019-05-23T14:29:26.619Z,8.17
2019-05-23T14:32:04.502Z,8.78
2019-05-23T14:34:34.470Z,8.80
2019-05-23T14:37:13.012Z,8.55
2019-05-23T14:39:45.621Z,8.35
2019-05-23T14:42:31.706Z,9.93
2019-05-23T14:45:01.544Z,7.33
2019-05-23T14:47:44.750Z,10.85
2019-05-23T14:50:32.315Z,7.33
2019-05-23T14:53:03.954Z,7.45
2019-05-23T14:55:34.691Z,7.17
2019-05-23T14:58:04.646Z,5.05
2019-05-23T15:00:34.880Z,7.90
2019-05-23T15:03:04.848Z,7.78
2019-05-23T15:05:34.793Z,6.42
2019-05-23T15:08:04.655Z,7.20
2019-05-23T15:10:34.988Z,7.35
2019-05-23T15:13:04.942Z,6.17
2019-05-23T15:15:34.817Z,7.20
2019-05-23T15:18:07.175Z,4.95
2019-05-23T15:20:38.719Z,6.85
2019-05-23T15:23:14.433Z,7.95
2019-05-23T15:25:49.569Z,5.47
2019-05-23T15:28:24.322Z,5.25
2019-05-23T15:31:09.286Z,6.95
2019-05-23T15:33:49.283Z,4.33
2019-05-23T15:36:23.931Z,4.72
2019-05-23T15:39:08.881Z,6.53
2019-05-23T15:41:35.493Z,5.50
2019-05-23T15:44:24.215Z,4.20
2019-05-23T15:46:52.139Z,7.25
2019-05-23T15:49:23.662Z,3.80
2019-05-23T15:52:11.567Z,5.83
2019-05-23T15:55:04.195Z,7.30
2019-05-23T15:58:01.023Z,5.60
2019-05-23T16:00:49.393Z,3.28
2019-05-23T16:03:41.189Z,3.52
2019-05-23T16:06:19.871Z,3.10
2019-05-23T16:08:51.809Z,7.63
2019-05-23T16:11:25.545Z,4.20
2019-05-23T16:14:01.906Z,3.50
2019-05-23T16:16:33.764Z,3.90
2019-05-23T16:19:13.148Z,3.87
2019-05-23T16:21:48.223Z,5.28
2019-05-23T16:24:25.313Z,2.52
2019-05-23T16:26:57.916Z,2.60
2019-05-23T16:29:34.130Z,4.65
2019-05-23T16:32:06.519Z,4.33
2019-05-23T16:34:43.261Z,3.57
2019-05-23T16:37:24.594Z,4.50
2019-05-23T16:39:56.610Z,4.27
2019-05-23T16:42:27.753Z,2.87
2019-05-23T16:45:10.370Z,3.55
2019-05-23T16:47:53.136Z,3.23
2019-05-23T16:50:31.285Z,6.50
2019-05-23T16:53:03.884Z,3.35
2019-05-23T16:55:47.542Z,2.52
2019-05-23T16:58:30.828Z,2.57
2019-05-23T17:01:24.621Z,2.40
2019-05-23T17:04:06.672Z,6.62
2019-05-23T17:06:44.240Z,3.17
2019-05-23T17:09:32.091Z,4.25
2019-05-23T17:12:21.250Z,2.33
2019-05-23T17:14:55.893Z,2.65
2019-05-23T17:18:00.152Z,5.72
2019-05-23T17:20:34.736Z,4.67
2019-05-23T17:23:12.600Z,3.65
2019-05-23T17:25:56.946Z,4.55
2019-05-23T17:28:47.760Z,3.70
2019-05-23T17:31:23.174Z,5.30
2019-05-23T17:33:53.050Z,2.40
2019-05-23T17:36:23.155Z,3.50
2019-05-23T17:38:52.924Z,4.15
2019-05-23T17:41:22.842Z,3.75
2019-05-23T17:43:52.830Z,5.40
2019-05-23T17:46:22.779Z,2.05
2019-05-23T17:48:52.730Z,1.98
2019-05-23T17:51:22.709Z,4.35
2019-05-23T17:53:52.621Z,2.50
2019-05-23T17:56:22.337Z,2.30
2019-05-23T17:58:52.878Z,3.17
2019-05-23T18:01:24.528Z,4.43
2019-05-23T18:03:54.197Z,5.85
2019-05-23T18:06:25.107Z,2.48
2019-05-23T18:08:55.151Z,3.77
2019-05-23T18:11:33.035Z,2.77
2019-05-23T18:14:03.784Z,3.02
2019-05-23T18:16:33.475Z,4.08
2019-05-23T18:19:04.207Z,2.80
2019-05-23T18:21:34.690Z,3.22
2019-05-23T18:24:05.175Z,3.55
2019-05-23T18:26:35.538Z,2.35
2019-05-23T18:29:05.864Z,3.47
2019-05-23T18:31:38.746Z,3.12
2019-05-23T18:34:09.315Z,6.25
2019-05-23T18:36:39.591Z,2.67
2019-05-23T18:39:12.413Z,2.98
2019-05-23T18:41:43.171Z,2.10
2019-05-23T18:44:13.474Z,3.47
2019-05-23T18:46:47.017Z,3.65
2019-05-23T18:49:17.116Z,2.40
2019-05-23T18:51:46.952Z,2.52
2019-05-23T18:54:16.995Z,3.00
2019-05-23T18:56:46.968Z,4.58
2019-05-23T18:59:17.760Z,2.80
2019-05-23T19:01:47.707Z,4.12
2019-05-23T19:04:19.226Z,3.75
2019-05-23T19:06:49.427Z,2.72
2019-05-23T19:09:20.798Z,2.40
2019-05-23T19:11:50.659Z,2.92
2019-05-23T19:14:21.002Z,5.42
2019-05-23T19:16:51.188Z,3.83
2019-05-23T19:19:26.754Z,4.40
2019-05-23T19:21:56.733Z,3.63
2019-05-23T19:24:26.561Z,5.53
2019-05-23T19:26:57.933Z,3.70
2019-05-23T19:29:27.844Z,3.30
2019-05-23T19:31:59.038Z,7.00
2019-05-23T19:34:29.322Z,6.43
2019-05-23T19:36:59.321Z,5.20
2019-05-23T19:39:29.437Z,5.17
2019-05-23T19:41:59.089Z,6.37
2019-05-23T19:44:29.937Z,5.70
2019-05-23T19:46:59.973Z,4.20
2019-05-23T19:49:31.073Z,6.03
2019-05-23T19:52:01.208Z,6.28
2019-05-23T19:54:31.307Z,5.57
2019-05-23T19:57:01.054Z,5.93
2019-05-23T20:02:36.314Z,6.78
2019-05-23T20:05:12.441Z,6.43
2019-05-23T20:07:43.437Z,6.47
2019-05-23T20:10:13.852Z,6.03
2019-05-23T20:12:43.747Z,6.53
2019-05-23T20:15:13.939Z,7.23
2019-05-23T20:17:44.297Z,9.80
2019-05-23T20:20:14.301Z,10.77
2019-05-23T20:22:44.126Z,7.73
2019-05-23T20:25:14.531Z,13.83
2019-05-23T20:27:44.482Z,8.50
2019-05-23T20:30:35.796Z,9.33
2019-05-23T20:33:05.719Z,9.40
2019-05-23T20:35:35.602Z,7.20
2019-05-23T20:38:06.096Z,7.70
2019-05-23T20:40:36.274Z,7.07
2019-05-23T20:43:06.275Z,7.03
2019-05-23T20:45:36.564Z,7.93
2019-05-23T20:48:15.364Z,9.13
2019-05-23T20:50:47.082Z,8.20
2019-05-23T20:53:17.248Z,7.20
2019-05-23T20:55:47.916Z,8.53
2019-05-23T20:58:17.883Z,7.70
2019-05-23T21:00:57.991Z,9.20
2019-05-23T21:03:35.448Z,8.73
2019-05-23T21:06:07.137Z,6.77
2019-05-23T21:08:37.527Z,6.37
2019-05-23T21:11:07.286Z,6.63
2019-05-23T21:13:37.074Z,7.62
2019-05-23T21:16:07.233Z,6.03
2019-05-23T21:18:37.124Z,7.97
2019-05-23T21:21:07.632Z,6.77
2019-05-23T21:23:37.830Z,8.53
2019-05-23T21:26:08.106Z,8.07
2019-05-23T21:28:37.901Z,8.10
2019-05-23T21:31:15.589Z,9.33
2019-05-23T21:33:45.902Z,6.27
2019-05-23T21:36:15.693Z,8.70
2019-05-23T21:38:45.686Z,7.43
2019-05-23T21:41:17.730Z,9.83
2019-05-23T21:43:49.330Z,7.10
2019-05-23T21:46:19.303Z,9.17
2019-05-23T21:48:49.569Z,7.87
2019-05-23T21:51:21.489Z,6.27
2019-05-23T21:53:51.393Z,8.50
2019-05-23T21:56:21.148Z,10.57
2019-05-23T21:58:53.907Z,11.30
2019-05-23T22:01:49.742Z,8.17
2019-05-23T22:04:35.902Z,11.07
2019-05-23T22:07:09.253Z,7.43
2019-05-23T22:09:40.139Z,8.47
2019-05-23T22:12:13.601Z,7.17
2019-05-23T22:14:43.543Z,8.37
2019-05-23T22:17:13.639Z,7.87
2019-05-23T22:19:43.529Z,9.35
2019-05-23T22:22:13.542Z,6.50
2019-05-23T22:24:46.110Z,9.63
2019-05-23T22:27:19.154Z,7.40
2019-05-23T22:29:50.105Z,8.70
2019-05-23T22:32:21.396Z,7.97
2019-05-23T22:35:15.401Z,8.33
2019-05-23T22:37:45.437Z,6.67
2019-05-23T22:40:16.156Z,9.23
2019-05-23T22:42:46.065Z,8.70
2019-05-23T22:45:18.093Z,6.47
2019-05-23T22:47:48.551Z,8.27
2019-05-23T22:50:19.048Z,8.13
2019-05-23T22:52:48.874Z,7.28
2019-05-23T22:55:18.797Z,6.97
2019-05-23T22:57:48.887Z,6.35
2019-05-23T23:00:25.554Z,7.93
2019-05-23T23:02:56.195Z,9.10
2019-05-23T23:05:29.486Z,7.17
2019-05-23T23:07:59.810Z,7.73
2019-05-23T23:10:30.070Z,10.37
2019-05-23T23:12:59.955Z,7.23
2019-05-23T23:15:31.952Z,7.65
2019-05-23T23:18:01.689Z,6.43
2019-05-23T23:20:32.168Z,7.97
2019-05-23T23:23:01.830Z,6.37
2019-05-23T23:25:33.096Z,5.57
2019-05-23T23:28:03.103Z,7.90
2019-05-23T23:30:35.918Z,9.90
2019-05-23T23:33:05.659Z,6.58
2019-05-23T23:35:35.569Z,8.00
2019-05-23T23:38:06.480Z,7.63
2019-05-23T23:40:36.513Z,6.17
2019-05-23T23:43:06.413Z,6.50
2019-05-23T23:45:54.121Z,5.90
2019-05-23T23:48:41.575Z,6.60
2019-05-23T23:51:28.863Z,5.37
2019-05-23T23:54:16.393Z,8.30
2019-05-23T23:57:03.757Z,5.03
2019-05-23T23:59:32.618Z,5.37
